THY1971 LTFM-EGLL
Flight info
| Callsign | THY1971 |
|---|---|
| Flight time | N/A |
| Altitude | 40000 |
| Route | TUDBU Q26 ETUBA DCT NAVOD DCT INVED DCT BEGLA DCT DEXIT DCT INBED DCT BOMBI DCT ADKUV DCT BUB L608 LOGAN |
| Aircraft | B789/H-SDE1E2E3FGHIJ2J3J4J5M1RWXY/LB1D1 |
Departure
| Time | 2026-05-04 01:36 |
|---|---|
| Airport | İstanbul Airport (LTFM) |
Arrival
| Time | N/A |
|---|---|
| Airport | London Heathrow Airport (EGLL) |
| Time | Latitude | Longitude | Altitude | Speed | Heading |
|---|---|---|---|---|---|
| 2026-05-04 00:28 | 41.26734 | 28.74119 | 319 ft | 0 kts | 90° |
| 2026-05-04 01:09 | 41.26734 | 28.74110 | 319 ft | 2 kts | 89° |
| 2026-05-04 01:10 | 41.26733 | 28.74088 | 317 ft | 2 kts | 87° |
| 2026-05-04 01:10 | 41.26732 | 28.74066 | 317 ft | 2 kts | 83° |
| 2026-05-04 01:10 | 41.26729 | 28.74044 | 316 ft | 2 kts | 75° |
| 2026-05-04 01:10 | 41.26722 | 28.74024 | 317 ft | 2 kts | 46° |
| 2026-05-04 01:11 | 41.26710 | 28.74017 | 315 ft | 1 kts | 356° |
| 2026-05-04 01:11 | 41.26711 | 28.74017 | 315 ft | 0 kts | 356° |
| 2026-05-04 01:11 | 41.26720 | 28.74016 | 317 ft | 3 kts | 357° |
| 2026-05-04 01:12 | 41.26753 | 28.74015 | 318 ft | 7 kts | 359° |
| 2026-05-04 01:12 | 41.26810 | 28.74015 | 319 ft | 10 kts | 0° |
| 2026-05-04 01:12 | 41.26890 | 28.74015 | 317 ft | 13 kts | 360° |
| 2026-05-04 01:12 | 41.26964 | 28.73988 | 318 ft | 7 kts | 312° |
| 2026-05-04 01:13 | 41.26970 | 28.73962 | 318 ft | 3 kts | 272° |
| 2026-05-04 01:13 | 41.26966 | 28.73901 | 318 ft | 10 kts | 264° |
| 2026-05-04 01:13 | 41.26960 | 28.73773 | 318 ft | 18 kts | 268° |
| 2026-05-04 01:13 | 41.26959 | 28.73592 | 318 ft | 24 kts | 270° |
| 2026-05-04 01:14 | 41.26956 | 28.73345 | 318 ft | 30 kts | 268° |
| 2026-05-04 01:14 | 41.26952 | 28.73061 | 315 ft | 20 kts | 269° |
| 2026-05-04 01:14 | 41.26923 | 28.73001 | 316 ft | 5 kts | 204° |
| 2026-05-04 01:14 | 41.26869 | 28.72988 | 317 ft | 11 kts | 181° |
| 2026-05-04 01:15 | 41.26775 | 28.72990 | 318 ft | 18 kts | 179° |
| 2026-05-04 01:15 | 41.26630 | 28.72992 | 319 ft | 24 kts | 179° |
| 2026-05-04 01:15 | 41.26455 | 28.72995 | 320 ft | 30 kts | 179° |
| 2026-05-04 01:15 | 41.26267 | 28.72999 | 320 ft | 10 kts | 180° |
| 2026-05-04 01:16 | 41.26262 | 28.72999 | 320 ft | 0 kts | 180° |
| 2026-05-04 01:34 | 41.26255 | 28.72997 | 320 ft | 3 kts | 188° |
| 2026-05-04 01:34 | 41.26239 | 28.72987 | 321 ft | 0 kts | 225° |
| 2026-05-04 01:34 | 41.26228 | 28.72959 | 321 ft | 7 kts | 248° |
| 2026-05-04 01:34 | 41.26217 | 28.72883 | 323 ft | 9 kts | 265° |
| 2026-05-04 01:35 | 41.26221 | 28.72807 | 325 ft | 7 kts | 294° |
| 2026-05-04 01:35 | 41.26259 | 28.72775 | 326 ft | 7 kts | 353° |
| 2026-05-04 01:35 | 41.26343 | 28.72771 | 328 ft | 19 kts | 358° |
| 2026-05-04 01:35 | 41.26647 | 28.72759 | 326 ft | 72 kts | 358° |
| 2026-05-04 01:36 | 41.27340 | 28.72755 | 320 ft | 126 kts | 359° |
| 2026-05-04 01:36 | 41.28364 | 28.72729 | 424 ft | 162 kts | 354° |
| 2026-05-04 01:36 | 41.29464 | 28.72701 | 1365 ft | 154 kts | 1° |
| 2026-05-04 01:36 | 41.30523 | 28.72698 | 2227 ft | 158 kts | 0° |
| 2026-05-04 01:37 | 41.31704 | 28.72670 | 2690 ft | 187 kts | 1° |
| 2026-05-04 01:37 | 41.33110 | 28.72643 | 3224 ft | 218 kts | 1° |
| 2026-05-04 01:37 | 41.34698 | 28.72610 | 4081 ft | 232 kts | 1° |
| 2026-05-04 01:37 | 41.36320 | 28.72574 | 5247 ft | 236 kts | 2° |
| 2026-05-04 01:38 | 41.37979 | 28.72479 | 6314 ft | 243 kts | 354° |
| 2026-05-04 01:38 | 41.39592 | 28.71673 | 7302 ft | 252 kts | 339° |
| 2026-05-04 01:38 | 41.41193 | 28.70665 | 8334 ft | 256 kts | 338° |
| 2026-05-04 01:38 | 41.42790 | 28.69629 | 9366 ft | 261 kts | 338° |
| 2026-05-04 01:39 | 41.44439 | 28.68569 | 10333 ft | 269 kts | 338° |
| 2026-05-04 01:39 | 41.46212 | 28.67445 | 10691 ft | 296 kts | 338° |
| 2026-05-04 01:39 | 41.48152 | 28.66211 | 11056 ft | 320 kts | 338° |
| 2026-05-04 01:39 | 41.50160 | 28.64916 | 12067 ft | 322 kts | 338° |
| 2026-05-04 01:40 | 41.52196 | 28.63608 | 12972 ft | 328 kts | 338° |
| 2026-05-04 01:40 | 41.54269 | 28.62283 | 13888 ft | 333 kts | 338° |
| 2026-05-04 01:40 | 41.56374 | 28.60928 | 14678 ft | 339 kts | 336° |
| 2026-05-04 01:40 | 41.58302 | 28.59030 | 15424 ft | 352 kts | 319° |
| 2026-05-04 01:41 | 41.59982 | 28.56659 | 16152 ft | 359 kts | 317° |
| 2026-05-04 01:41 | 41.61671 | 28.54153 | 16920 ft | 365 kts | 316° |
| 2026-05-04 01:41 | 41.63377 | 28.51609 | 17672 ft | 371 kts | 316° |
| 2026-05-04 01:41 | 41.65130 | 28.49046 | 18405 ft | 376 kts | 316° |
| 2026-05-04 01:42 | 41.66862 | 28.46388 | 19014 ft | 385 kts | 308° |
| 2026-05-04 01:42 | 41.68124 | 28.43193 | 19669 ft | 393 kts | 298° |
| 2026-05-04 01:42 | 41.69244 | 28.39838 | 20291 ft | 398 kts | 296° |
| 2026-05-04 01:42 | 41.70329 | 28.36403 | 20926 ft | 403 kts | 296° |
| 2026-05-04 01:43 | 41.71443 | 28.32945 | 21539 ft | 407 kts | 297° |
| 2026-05-04 01:43 | 41.72580 | 28.29513 | 22143 ft | 411 kts | 297° |
| 2026-05-04 01:43 | 41.73736 | 28.25997 | 22722 ft | 415 kts | 296° |
| 2026-05-04 01:43 | 41.74890 | 28.22432 | 23305 ft | 419 kts | 296° |
| 2026-05-04 01:44 | 41.76055 | 28.18830 | 23823 ft | 423 kts | 296° |
| 2026-05-04 01:44 | 41.77236 | 28.15198 | 24260 ft | 427 kts | 296° |
| 2026-05-04 01:44 | 41.78430 | 28.11526 | 24692 ft | 431 kts | 296° |
| 2026-05-04 01:44 | 41.79769 | 28.07935 | 25088 ft | 432 kts | 307° |
| 2026-05-04 01:45 | 41.81549 | 28.04671 | 25445 ft | 435 kts | 309° |
| 2026-05-04 01:45 | 41.83373 | 28.01428 | 25862 ft | 438 kts | 310° |
| 2026-05-04 01:45 | 41.87063 | 27.94895 | 26627 ft | 446 kts | 309° |
| 2026-05-04 01:46 | 41.88929 | 27.91545 | 27008 ft | 450 kts | 309° |
| 2026-05-04 01:46 | 41.90816 | 27.88169 | 27382 ft | 454 kts | 309° |
| 2026-05-04 01:46 | 41.92721 | 27.84770 | 27753 ft | 457 kts | 309° |
| 2026-05-04 01:46 | 41.94639 | 27.81340 | 28115 ft | 461 kts | 309° |
| 2026-05-04 01:47 | 41.96580 | 27.77901 | 28452 ft | 463 kts | 313° |
| 2026-05-04 01:47 | 41.98809 | 27.74774 | 28736 ft | 465 kts | 317° |
| 2026-05-04 01:47 | 42.01089 | 27.71665 | 29096 ft | 468 kts | 316° |
| 2026-05-04 01:47 | 42.03348 | 27.68569 | 29423 ft | 472 kts | 316° |
| 2026-05-04 01:48 | 42.05653 | 27.65407 | 29751 ft | 475 kts | 316° |
| 2026-05-04 01:48 | 42.07975 | 27.62225 | 30051 ft | 478 kts | 316° |
| 2026-05-04 01:48 | 42.10312 | 27.59021 | 30365 ft | 480 kts | 316° |
| 2026-05-04 01:48 | 42.12653 | 27.55802 | 30703 ft | 481 kts | 316° |
| 2026-05-04 01:49 | 42.14999 | 27.52573 | 31004 ft | 483 kts | 316° |
| 2026-05-04 01:49 | 42.17350 | 27.49335 | 31340 ft | 484 kts | 315° |
| 2026-05-04 01:49 | 42.19707 | 27.46087 | 31671 ft | 485 kts | 315° |
| 2026-05-04 01:49 | 42.22036 | 27.42870 | 31972 ft | 486 kts | 315° |
| 2026-05-04 01:50 | 42.24403 | 27.39600 | 32269 ft | 488 kts | 315° |
| 2026-05-04 01:50 | 42.26769 | 27.36326 | 32588 ft | 489 kts | 315° |
| 2026-05-04 01:50 | 42.29146 | 27.33033 | 32889 ft | 490 kts | 315° |
| 2026-05-04 01:50 | 42.31523 | 27.29736 | 33186 ft | 491 kts | 315° |
| 2026-05-04 01:51 | 42.33909 | 27.26425 | 33475 ft | 492 kts | 315° |
| 2026-05-04 01:51 | 42.36298 | 27.23103 | 33746 ft | 493 kts | 315° |
| 2026-05-04 01:51 | 42.38695 | 27.19768 | 33992 ft | 495 kts | 315° |
| 2026-05-04 01:51 | 42.41097 | 27.16421 | 34229 ft | 497 kts | 315° |
| 2026-05-04 01:52 | 42.43475 | 27.13105 | 34404 ft | 498 kts | 315° |
| 2026-05-04 01:52 | 42.45902 | 27.09716 | 34630 ft | 499 kts | 315° |
| 2026-05-04 01:52 | 42.48317 | 27.06338 | 34912 ft | 499 kts | 315° |
| 2026-05-04 01:52 | 42.50726 | 27.02967 | 35207 ft | 498 kts | 315° |
| 2026-05-04 01:53 | 42.53132 | 26.99595 | 35496 ft | 497 kts | 315° |
| 2026-05-04 01:53 | 42.55532 | 26.96227 | 35811 ft | 496 kts | 315° |
| 2026-05-04 01:53 | 42.57897 | 26.92905 | 36109 ft | 495 kts | 315° |
| 2026-05-04 01:53 | 42.60279 | 26.89555 | 36410 ft | 494 kts | 315° |
| 2026-05-04 01:54 | 42.62660 | 26.86203 | 36719 ft | 492 kts | 315° |
| 2026-05-04 01:54 | 42.65036 | 26.82854 | 37034 ft | 491 kts | 315° |
| 2026-05-04 01:54 | 42.67403 | 26.79512 | 37335 ft | 490 kts | 315° |
| 2026-05-04 01:54 | 42.69761 | 26.76181 | 37643 ft | 489 kts | 315° |
| 2026-05-04 01:55 | 42.72114 | 26.72852 | 37955 ft | 487 kts | 315° |
| 2026-05-04 01:55 | 42.74457 | 26.69533 | 38262 ft | 486 kts | 315° |
| 2026-05-04 01:55 | 42.76799 | 26.66212 | 38544 ft | 485 kts | 315° |
| 2026-05-04 01:55 | 42.79101 | 26.62945 | 38826 ft | 484 kts | 315° |
| 2026-05-04 01:56 | 42.81380 | 26.59573 | 39016 ft | 484 kts | 308° |
| 2026-05-04 01:56 | 42.83280 | 26.55783 | 39204 ft | 485 kts | 305° |
| 2026-05-04 01:56 | 42.85124 | 26.51930 | 39369 ft | 485 kts | 304° |
| 2026-05-04 01:56 | 42.86957 | 26.48067 | 39551 ft | 485 kts | 304° |
| 2026-05-04 01:57 | 42.88795 | 26.44204 | 39704 ft | 486 kts | 304° |
| 2026-05-04 01:57 | 42.90638 | 26.40338 | 39862 ft | 486 kts | 304° |
| 2026-05-04 01:57 | 42.92480 | 26.36464 | 40022 ft | 487 kts | 304° |
| 2026-05-04 01:57 | 42.94296 | 26.32632 | 40148 ft | 489 kts | 304° |
| 2026-05-04 01:58 | 42.98002 | 26.24803 | 40133 ft | 491 kts | 304° |
| 2026-05-04 01:58 | 43.01689 | 26.16995 | 40158 ft | 488 kts | 304° |
| 2026-05-04 01:59 | 43.05362 | 26.09198 | 40148 ft | 489 kts | 304° |
| 2026-05-04 01:59 | 43.09017 | 26.01417 | 40159 ft | 490 kts | 304° |
| 2026-05-04 02:00 | 43.12693 | 25.93571 | 40161 ft | 490 kts | 304° |
| 2026-05-04 02:00 | 43.16366 | 25.85710 | 40154 ft | 490 kts | 304° |
| 2026-05-04 02:01 | 43.20031 | 25.77845 | 40158 ft | 489 kts | 304° |
| 2026-05-04 02:01 | 43.23662 | 25.70033 | 40155 ft | 489 kts | 304° |
| 2026-05-04 02:02 | 43.27315 | 25.62151 | 40160 ft | 490 kts | 304° |
| 2026-05-04 02:02 | 43.30963 | 25.54260 | 40156 ft | 490 kts | 304° |
| 2026-05-04 02:03 | 43.34609 | 25.46353 | 40159 ft | 489 kts | 304° |
| 2026-05-04 02:03 | 43.38242 | 25.38451 | 40156 ft | 490 kts | 304° |
| 2026-05-04 02:04 | 43.41850 | 25.30583 | 40157 ft | 490 kts | 304° |
| 2026-05-04 02:04 | 43.45479 | 25.22649 | 40161 ft | 490 kts | 304° |
| 2026-05-04 02:05 | 43.49097 | 25.14714 | 40165 ft | 489 kts | 303° |
| 2026-05-04 02:05 | 43.52703 | 25.06787 | 40163 ft | 488 kts | 303° |
| 2026-05-04 02:06 | 43.56267 | 24.98930 | 40165 ft | 487 kts | 303° |
| 2026-05-04 02:06 | 43.59857 | 24.90996 | 40168 ft | 488 kts | 303° |
| 2026-05-04 02:07 | 43.63444 | 24.83045 | 40166 ft | 488 kts | 303° |
| 2026-05-04 02:07 | 43.67024 | 24.75089 | 40171 ft | 487 kts | 303° |
| 2026-05-04 02:08 | 43.70564 | 24.67200 | 40179 ft | 486 kts | 303° |
| 2026-05-04 02:08 | 43.74118 | 24.59258 | 40173 ft | 485 kts | 303° |
| 2026-05-04 02:09 | 43.78153 | 24.51843 | 40186 ft | 483 kts | 312° |
| 2026-05-04 02:09 | 43.82534 | 24.44754 | 40191 ft | 485 kts | 312° |
| 2026-05-04 02:10 | 43.86889 | 24.37709 | 40188 ft | 484 kts | 312° |
| 2026-05-04 02:10 | 43.91258 | 24.30615 | 40187 ft | 483 kts | 312° |
| 2026-05-04 02:11 | 43.95621 | 24.23516 | 40184 ft | 483 kts | 312° |
| 2026-05-04 02:11 | 43.99695 | 24.16872 | 40175 ft | 482 kts | 312° |
| 2026-05-04 02:12 | 44.04034 | 24.09777 | 40162 ft | 482 kts | 312° |
| 2026-05-04 02:12 | 44.08364 | 24.02681 | 40151 ft | 481 kts | 312° |
| 2026-05-04 02:13 | 44.12664 | 23.95615 | 40140 ft | 481 kts | 312° |
| 2026-05-04 02:13 | 44.16986 | 23.88498 | 40131 ft | 482 kts | 312° |
| 2026-05-04 02:14 | 44.21214 | 23.81516 | 40122 ft | 482 kts | 312° |
| 2026-05-04 02:14 | 44.25538 | 23.74359 | 40138 ft | 482 kts | 312° |
| 2026-05-04 02:15 | 44.29855 | 23.67196 | 40139 ft | 482 kts | 312° |
| 2026-05-04 02:15 | 44.34140 | 23.60067 | 40141 ft | 483 kts | 312° |
| 2026-05-04 02:16 | 44.38449 | 23.52880 | 40143 ft | 482 kts | 312° |
| 2026-05-04 02:16 | 44.42757 | 23.45679 | 40150 ft | 483 kts | 312° |
| 2026-05-04 02:17 | 44.47062 | 23.38462 | 40152 ft | 483 kts | 312° |
| 2026-05-04 02:17 | 44.51353 | 23.31251 | 40153 ft | 482 kts | 311° |
| 2026-05-04 02:18 | 44.55607 | 23.24084 | 40154 ft | 480 kts | 311° |
| 2026-05-04 02:18 | 44.59874 | 23.16878 | 40149 ft | 480 kts | 311° |
| 2026-05-04 02:19 | 44.64132 | 23.09668 | 40149 ft | 479 kts | 311° |
| 2026-05-04 02:19 | 44.68376 | 23.02463 | 40150 ft | 478 kts | 312° |
| 2026-05-04 02:20 | 44.72572 | 22.95324 | 40151 ft | 476 kts | 312° |
| 2026-05-04 02:20 | 44.76779 | 22.88146 | 40152 ft | 475 kts | 312° |
| 2026-05-04 02:21 | 44.80974 | 22.80972 | 40150 ft | 474 kts | 312° |
| 2026-05-04 02:21 | 44.85163 | 22.73789 | 40153 ft | 474 kts | 312° |
| 2026-05-04 02:22 | 44.89314 | 22.66652 | 40158 ft | 474 kts | 312° |
| 2026-05-04 02:22 | 44.93494 | 22.59450 | 40167 ft | 474 kts | 312° |
| 2026-05-04 02:23 | 44.97665 | 22.52243 | 40170 ft | 473 kts | 312° |
| 2026-05-04 02:23 | 45.01825 | 22.45036 | 40181 ft | 472 kts | 311° |
| 2026-05-04 02:24 | 45.05947 | 22.37879 | 40175 ft | 472 kts | 311° |
| 2026-05-04 02:24 | 45.10097 | 22.30653 | 40173 ft | 470 kts | 311° |
| 2026-05-04 02:25 | 45.13940 | 22.23948 | 40170 ft | 470 kts | 311° |
| 2026-05-04 02:25 | 45.18056 | 22.16746 | 40174 ft | 471 kts | 311° |
| 2026-05-04 02:26 | 45.22171 | 22.09528 | 40167 ft | 470 kts | 311° |
| 2026-05-04 02:26 | 45.26275 | 22.02311 | 40168 ft | 470 kts | 311° |
| 2026-05-04 02:27 | 45.30375 | 21.95083 | 40164 ft | 470 kts | 311° |
| 2026-05-04 02:27 | 45.34442 | 21.87895 | 40161 ft | 470 kts | 311° |
| 2026-05-04 02:28 | 45.38530 | 21.80651 | 40156 ft | 470 kts | 311° |
| 2026-05-04 02:28 | 45.42610 | 21.73403 | 40158 ft | 469 kts | 311° |
| 2026-05-04 02:29 | 45.46687 | 21.66142 | 40160 ft | 469 kts | 311° |
| 2026-05-04 02:29 | 45.50764 | 21.58861 | 40154 ft | 470 kts | 311° |
| 2026-05-04 02:30 | 45.54811 | 21.51615 | 40161 ft | 470 kts | 311° |
| 2026-05-04 02:30 | 45.58874 | 21.44323 | 40165 ft | 469 kts | 311° |
| 2026-05-04 02:31 | 45.62930 | 21.37024 | 40167 ft | 469 kts | 311° |
| 2026-05-04 02:31 | 45.66954 | 21.29763 | 40174 ft | 469 kts | 311° |
| 2026-05-04 02:32 | 45.70990 | 21.22461 | 40174 ft | 468 kts | 311° |
| 2026-05-04 02:32 | 45.75021 | 21.15151 | 40173 ft | 468 kts | 311° |
| 2026-05-04 02:33 | 45.79047 | 21.07831 | 40164 ft | 467 kts | 311° |
| 2026-05-04 02:33 | 45.83061 | 21.00512 | 40158 ft | 467 kts | 311° |
| 2026-05-04 02:34 | 45.87042 | 20.93235 | 40154 ft | 467 kts | 311° |
| 2026-05-04 02:34 | 45.91046 | 20.85898 | 40144 ft | 466 kts | 310° |
| 2026-05-04 02:35 | 45.95040 | 20.78560 | 40147 ft | 466 kts | 310° |
| 2026-05-04 02:35 | 45.99033 | 20.71203 | 40145 ft | 466 kts | 310° |
| 2026-05-04 02:36 | 46.02983 | 20.63906 | 40146 ft | 465 kts | 310° |
| 2026-05-04 02:36 | 46.06956 | 20.56550 | 40160 ft | 465 kts | 310° |
| 2026-05-04 02:37 | 46.10922 | 20.49186 | 40144 ft | 465 kts | 310° |
| 2026-05-04 02:37 | 46.14883 | 20.41812 | 40140 ft | 465 kts | 310° |
| 2026-05-04 02:38 | 46.18820 | 20.34491 | 40144 ft | 465 kts | 310° |
| 2026-05-04 02:38 | 46.22787 | 20.27132 | 40146 ft | 464 kts | 310° |
| 2026-05-04 02:39 | 46.26741 | 20.19753 | 40147 ft | 464 kts | 310° |
| 2026-05-04 02:39 | 46.30687 | 20.12385 | 40146 ft | 464 kts | 310° |
| 2026-05-04 02:40 | 46.34631 | 20.04991 | 40147 ft | 464 kts | 310° |
| 2026-05-04 02:40 | 46.38541 | 19.97647 | 40142 ft | 463 kts | 310° |
| 2026-05-04 02:41 | 46.42346 | 19.90480 | 40151 ft | 463 kts | 310° |
| 2026-05-04 02:41 | 46.46271 | 19.83068 | 40146 ft | 463 kts | 309° |
| 2026-05-04 02:42 | 46.50187 | 19.75651 | 40148 ft | 463 kts | 309° |
| 2026-05-04 02:42 | 46.54065 | 19.68289 | 40142 ft | 463 kts | 309° |
| 2026-05-04 02:43 | 46.58008 | 19.60783 | 40144 ft | 463 kts | 309° |
| 2026-05-04 02:43 | 46.61885 | 19.53382 | 40152 ft | 464 kts | 309° |
| 2026-05-04 02:44 | 46.65788 | 19.45912 | 40151 ft | 463 kts | 309° |
| 2026-05-04 02:44 | 46.69684 | 19.38436 | 40144 ft | 463 kts | 309° |
| 2026-05-04 02:45 | 46.73583 | 19.30934 | 40147 ft | 465 kts | 309° |
| 2026-05-04 02:45 | 46.77455 | 19.23462 | 40143 ft | 466 kts | 309° |
| 2026-05-04 02:46 | 46.81356 | 19.15915 | 40142 ft | 465 kts | 309° |
| 2026-05-04 02:46 | 46.85133 | 19.08589 | 40140 ft | 465 kts | 308° |
| 2026-05-04 02:47 | 46.88993 | 19.01080 | 40139 ft | 466 kts | 308° |
| 2026-05-04 02:47 | 46.92886 | 18.93489 | 40137 ft | 466 kts | 308° |
| 2026-05-04 02:48 | 46.96766 | 18.85899 | 40133 ft | 466 kts | 308° |
| 2026-05-04 02:48 | 47.00643 | 18.78297 | 40135 ft | 466 kts | 308° |
| 2026-05-04 02:49 | 47.04497 | 18.70718 | 40137 ft | 466 kts | 308° |
| 2026-05-04 02:49 | 47.08361 | 18.63100 | 40135 ft | 466 kts | 308° |
| 2026-05-04 02:50 | 47.12216 | 18.55476 | 40138 ft | 465 kts | 308° |
| 2026-05-04 02:50 | 47.16067 | 18.47840 | 40129 ft | 465 kts | 308° |
| 2026-05-04 02:51 | 47.19888 | 18.40243 | 40132 ft | 465 kts | 307° |
| 2026-05-04 02:51 | 47.23726 | 18.32591 | 40126 ft | 465 kts | 307° |
| 2026-05-04 02:52 | 47.27561 | 18.24924 | 40126 ft | 465 kts | 307° |
| 2026-05-04 02:52 | 47.31386 | 18.17256 | 40124 ft | 464 kts | 307° |
| 2026-05-04 02:53 | 47.34564 | 18.10867 | 40115 ft | 465 kts | 307° |
| 2026-05-04 02:53 | 47.38387 | 18.03163 | 40110 ft | 466 kts | 307° |
| 2026-05-04 02:54 | 47.42198 | 17.95462 | 40105 ft | 466 kts | 307° |
| 2026-05-04 02:54 | 47.46432 | 17.86880 | 40098 ft | 465 kts | 307° |
| 2026-05-04 02:55 | 47.51494 | 17.76584 | 40095 ft | 465 kts | 307° |
| 2026-05-04 02:56 | 47.55295 | 17.68827 | 40093 ft | 465 kts | 306° |
| 2026-05-04 02:56 | 47.59087 | 17.61070 | 40093 ft | 465 kts | 306° |
| 2026-05-04 02:57 | 47.62874 | 17.53296 | 40094 ft | 465 kts | 306° |
| 2026-05-04 02:57 | 47.66635 | 17.45558 | 40090 ft | 466 kts | 306° |
| 2026-05-04 02:58 | 47.70420 | 17.37746 | 40084 ft | 466 kts | 306° |
| 2026-05-04 02:58 | 47.74196 | 17.29931 | 40076 ft | 465 kts | 306° |
| 2026-05-04 02:59 | 47.77935 | 17.22170 | 40073 ft | 464 kts | 306° |
| 2026-05-04 02:59 | 47.81684 | 17.14368 | 40071 ft | 464 kts | 306° |
| 2026-05-04 02:59 | 47.83391 | 17.10310 | 40110 ft | 463 kts | 295° |
| 2026-05-04 03:00 | 47.84715 | 17.05939 | 40087 ft | 465 kts | 294° |
| 2026-05-04 03:00 | 47.87282 | 16.97086 | 40086 ft | 465 kts | 294° |
| 2026-05-04 03:01 | 47.89865 | 16.88255 | 40067 ft | 465 kts | 294° |
| 2026-05-04 03:01 | 47.92412 | 16.79475 | 40052 ft | 464 kts | 294° |
| 2026-05-04 03:02 | 47.94961 | 16.70665 | 40043 ft | 463 kts | 294° |
| 2026-05-04 03:02 | 47.97503 | 16.61845 | 40036 ft | 462 kts | 294° |
| 2026-05-04 03:03 | 48.00039 | 16.53017 | 40031 ft | 463 kts | 293° |
| 2026-05-04 03:03 | 48.02550 | 16.44242 | 40033 ft | 463 kts | 293° |
| 2026-05-04 03:04 | 48.05079 | 16.35372 | 40027 ft | 463 kts | 293° |
| 2026-05-04 03:04 | 48.07595 | 16.26517 | 40027 ft | 462 kts | 293° |
| 2026-05-04 03:05 | 48.10103 | 16.17654 | 40036 ft | 463 kts | 293° |
| 2026-05-04 03:05 | 48.12611 | 16.08758 | 40042 ft | 464 kts | 293° |
| 2026-05-04 03:06 | 48.14945 | 16.00453 | 40041 ft | 464 kts | 292° |
| 2026-05-04 03:06 | 48.17441 | 15.91536 | 40043 ft | 464 kts | 292° |
| 2026-05-04 03:07 | 48.19932 | 15.82607 | 40043 ft | 464 kts | 292° |
| 2026-05-04 03:07 | 48.22420 | 15.73651 | 40048 ft | 465 kts | 292° |
| 2026-05-04 03:08 | 48.24885 | 15.64749 | 40044 ft | 465 kts | 292° |
| 2026-05-04 03:08 | 48.27359 | 15.55776 | 40039 ft | 465 kts | 292° |
| 2026-05-04 03:09 | 48.29826 | 15.46798 | 40036 ft | 466 kts | 292° |
| 2026-05-04 03:09 | 48.32289 | 15.37800 | 40035 ft | 466 kts | 291° |
| 2026-05-04 03:10 | 48.34662 | 15.29095 | 40034 ft | 465 kts | 291° |
| 2026-05-04 03:10 | 48.37102 | 15.20112 | 40031 ft | 465 kts | 291° |
| 2026-05-04 03:11 | 48.39540 | 15.11104 | 40030 ft | 464 kts | 291° |
| 2026-05-04 03:11 | 48.41964 | 15.02112 | 40027 ft | 464 kts | 291° |
| 2026-05-04 03:12 | 48.44382 | 14.93108 | 40025 ft | 464 kts | 291° |
| 2026-05-04 03:12 | 48.46787 | 14.84116 | 40022 ft | 462 kts | 291° |
| 2026-05-04 03:13 | 48.49169 | 14.75177 | 40024 ft | 462 kts | 291° |
| 2026-05-04 03:13 | 48.51558 | 14.66178 | 40027 ft | 462 kts | 291° |
| 2026-05-04 03:14 | 48.53937 | 14.57179 | 40011 ft | 462 kts | 290° |
| 2026-05-04 03:14 | 48.56294 | 14.48231 | 40014 ft | 462 kts | 290° |
| 2026-05-04 03:15 | 48.58658 | 14.39223 | 40014 ft | 462 kts | 290° |
| 2026-05-04 03:15 | 48.61015 | 14.30203 | 40011 ft | 461 kts | 290° |
| 2026-05-04 03:16 | 48.63366 | 14.21172 | 40012 ft | 462 kts | 290° |
| 2026-05-04 03:16 | 48.65711 | 14.12129 | 40015 ft | 462 kts | 290° |
| 2026-05-04 03:17 | 48.68037 | 14.03123 | 40018 ft | 463 kts | 290° |
| 2026-05-04 03:17 | 48.70370 | 13.94053 | 40028 ft | 463 kts | 290° |
| 2026-05-04 03:18 | 48.72702 | 13.84953 | 40021 ft | 464 kts | 290° |
| 2026-05-04 03:18 | 48.75027 | 13.75839 | 40024 ft | 464 kts | 290° |
| 2026-05-04 03:19 | 48.77247 | 13.66743 | 40016 ft | 464 kts | 289° |
| 2026-05-04 03:19 | 48.79499 | 13.57571 | 40023 ft | 464 kts | 289° |
| 2026-05-04 03:20 | 48.81675 | 13.48349 | 40028 ft | 465 kts | 288° |
| 2026-05-04 03:20 | 48.83880 | 13.39116 | 40028 ft | 465 kts | 289° |
| 2026-05-04 03:21 | 48.86050 | 13.29930 | 40031 ft | 465 kts | 288° |
| 2026-05-04 03:21 | 48.88234 | 13.20669 | 40035 ft | 466 kts | 288° |
| 2026-05-04 03:22 | 48.90412 | 13.11387 | 40034 ft | 466 kts | 288° |
| 2026-05-04 03:22 | 48.92581 | 13.02104 | 40042 ft | 466 kts | 288° |
| 2026-05-04 03:23 | 48.94727 | 12.92881 | 40038 ft | 466 kts | 288° |
| 2026-05-04 03:23 | 48.96879 | 12.83590 | 40036 ft | 466 kts | 288° |
| 2026-05-04 03:24 | 48.99026 | 12.74282 | 40040 ft | 466 kts | 288° |
| 2026-05-04 03:24 | 49.01166 | 12.64963 | 40038 ft | 466 kts | 288° |
| 2026-05-04 03:25 | 49.03281 | 12.55717 | 40042 ft | 465 kts | 288° |
| 2026-05-04 03:25 | 49.05402 | 12.46400 | 40036 ft | 465 kts | 287° |
| 2026-05-04 03:26 | 49.07515 | 12.37075 | 40036 ft | 466 kts | 287° |
| 2026-05-04 03:26 | 49.09623 | 12.27733 | 40040 ft | 465 kts | 287° |
| 2026-05-04 03:27 | 49.11719 | 12.18407 | 40038 ft | 465 kts | 287° |
| 2026-05-04 03:27 | 49.13794 | 12.09128 | 40042 ft | 465 kts | 287° |
| 2026-05-04 03:28 | 49.15876 | 11.99778 | 40046 ft | 465 kts | 287° |
| 2026-05-04 03:28 | 49.17952 | 11.90414 | 40046 ft | 465 kts | 287° |
| 2026-05-04 03:29 | 49.20018 | 11.81052 | 40046 ft | 465 kts | 287° |
| 2026-05-04 03:29 | 49.22067 | 11.71726 | 40045 ft | 465 kts | 287° |
| 2026-05-04 03:30 | 49.23997 | 11.62903 | 40042 ft | 465 kts | 287° |
| 2026-05-04 03:30 | 49.26040 | 11.53521 | 40038 ft | 465 kts | 286° |
| 2026-05-04 03:31 | 49.28077 | 11.44126 | 40041 ft | 465 kts | 286° |
| 2026-05-04 03:31 | 49.30105 | 11.34727 | 40051 ft | 464 kts | 286° |
| 2026-05-04 03:32 | 49.32110 | 11.25395 | 40061 ft | 464 kts | 286° |
| 2026-05-04 03:32 | 49.34123 | 11.15978 | 40059 ft | 465 kts | 286° |
| 2026-05-04 03:33 | 49.36131 | 11.06547 | 40056 ft | 465 kts | 286° |
| 2026-05-04 03:33 | 49.38130 | 10.97108 | 40061 ft | 466 kts | 286° |
| 2026-05-04 03:34 | 49.40742 | 10.88065 | 40066 ft | 469 kts | 294° |
| 2026-05-04 03:34 | 49.43647 | 10.79108 | 40060 ft | 468 kts | 294° |
| 2026-05-04 03:35 | 49.46546 | 10.70157 | 40053 ft | 468 kts | 294° |
| 2026-05-04 03:35 | 49.49435 | 10.61192 | 40041 ft | 468 kts | 294° |
| 2026-05-04 03:36 | 49.52318 | 10.52224 | 40046 ft | 468 kts | 294° |
| 2026-05-04 03:36 | 49.55171 | 10.43309 | 40041 ft | 467 kts | 294° |
| 2026-05-04 03:37 | 49.58033 | 10.34341 | 40045 ft | 466 kts | 294° |
| 2026-05-04 03:37 | 49.60877 | 10.25391 | 40043 ft | 465 kts | 294° |
| 2026-05-04 03:38 | 49.63711 | 10.16445 | 40031 ft | 464 kts | 293° |
| 2026-05-04 03:38 | 49.66517 | 10.07554 | 40030 ft | 464 kts | 293° |
| 2026-05-04 03:39 | 49.69337 | 9.98586 | 40024 ft | 464 kts | 293° |
| 2026-05-04 03:39 | 49.72151 | 9.89605 | 40021 ft | 464 kts | 293° |
| 2026-05-04 03:40 | 49.74950 | 9.80638 | 40018 ft | 463 kts | 293° |
| 2026-05-04 03:40 | 49.77720 | 9.71733 | 40014 ft | 462 kts | 293° |
| 2026-05-04 03:41 | 49.80491 | 9.62791 | 40016 ft | 462 kts | 292° |
| 2026-05-04 03:41 | 49.83270 | 9.53794 | 40016 ft | 462 kts | 292° |
| 2026-05-04 03:42 | 49.86036 | 9.44804 | 40009 ft | 462 kts | 292° |
| 2026-05-04 03:42 | 49.88774 | 9.35871 | 40012 ft | 462 kts | 292° |
| 2026-05-04 03:43 | 49.91525 | 9.26863 | 40011 ft | 462 kts | 292° |
| 2026-05-04 03:43 | 49.94101 | 9.18401 | 40010 ft | 462 kts | 292° |
| 2026-05-04 03:44 | 49.96840 | 9.09369 | 40013 ft | 463 kts | 292° |
| 2026-05-04 03:44 | 49.99554 | 9.00389 | 40021 ft | 462 kts | 292° |
| 2026-05-04 03:45 | 50.02276 | 8.91345 | 40025 ft | 461 kts | 292° |
| 2026-05-04 03:45 | 50.04987 | 8.82308 | 40028 ft | 460 kts | 292° |
| 2026-05-04 03:46 | 50.07307 | 8.73068 | 40028 ft | 459 kts | 287° |
| 2026-05-04 03:46 | 50.09538 | 8.63727 | 40035 ft | 460 kts | 287° |
| 2026-05-04 03:47 | 50.11730 | 8.54373 | 40033 ft | 460 kts | 287° |
| 2026-05-04 03:47 | 50.13916 | 8.45076 | 40051 ft | 460 kts | 287° |
| 2026-05-04 03:48 | 50.16102 | 8.35700 | 40049 ft | 461 kts | 287° |
| 2026-05-04 03:48 | 50.18288 | 8.26302 | 40050 ft | 461 kts | 287° |
| 2026-05-04 03:49 | 50.20450 | 8.16961 | 40041 ft | 461 kts | 286° |
| 2026-05-04 03:49 | 50.22618 | 8.07552 | 40033 ft | 461 kts | 286° |
| 2026-05-04 03:50 | 50.24782 | 7.98123 | 40025 ft | 461 kts | 286° |
| 2026-05-04 03:50 | 50.26937 | 7.88683 | 40018 ft | 461 kts | 286° |
| 2026-05-04 03:51 | 50.29087 | 7.79232 | 40017 ft | 461 kts | 286° |
| 2026-05-04 03:51 | 50.31213 | 7.69838 | 40014 ft | 461 kts | 286° |
| 2026-05-04 03:52 | 50.33348 | 7.60366 | 40012 ft | 462 kts | 286° |
| 2026-05-04 03:52 | 50.35476 | 7.50880 | 40013 ft | 462 kts | 285° |
| 2026-05-04 03:53 | 50.37596 | 7.41386 | 40008 ft | 462 kts | 285° |
| 2026-05-04 03:53 | 50.39707 | 7.31892 | 40008 ft | 462 kts | 285° |
| 2026-05-04 03:54 | 50.41797 | 7.22447 | 39995 ft | 462 kts | 285° |
| 2026-05-04 03:54 | 50.43898 | 7.12915 | 39998 ft | 462 kts | 285° |
| 2026-05-04 03:55 | 50.45989 | 7.03377 | 40000 ft | 462 kts | 285° |
| 2026-05-04 03:55 | 50.48072 | 6.93836 | 39990 ft | 462 kts | 285° |
| 2026-05-04 03:56 | 50.50131 | 6.84361 | 39984 ft | 462 kts | 285° |
| 2026-05-04 03:56 | 50.51978 | 6.74729 | 39978 ft | 461 kts | 282° |
| 2026-05-04 03:57 | 50.53770 | 6.65071 | 39973 ft | 460 kts | 282° |
| 2026-05-04 03:57 | 50.55529 | 6.55378 | 39978 ft | 461 kts | 282° |
| 2026-05-04 03:58 | 50.58162 | 6.40892 | 39971 ft | 460 kts | 282° |
| 2026-05-04 03:58 | 50.59906 | 6.31204 | 39974 ft | 460 kts | 282° |
| 2026-05-04 03:59 | 50.61646 | 6.21501 | 39972 ft | 461 kts | 282° |
| 2026-05-04 03:59 | 50.63377 | 6.11783 | 39974 ft | 461 kts | 282° |
| 2026-05-04 04:00 | 50.65105 | 6.02038 | 39962 ft | 463 kts | 281° |
| 2026-05-04 04:00 | 50.66817 | 5.92327 | 39963 ft | 463 kts | 281° |
| 2026-05-04 04:01 | 50.68534 | 5.82541 | 39968 ft | 464 kts | 281° |
| 2026-05-04 04:01 | 50.70245 | 5.72730 | 39970 ft | 464 kts | 281° |
| 2026-05-04 04:02 | 50.71948 | 5.62911 | 39980 ft | 464 kts | 281° |
| 2026-05-04 04:02 | 50.73643 | 5.53079 | 39973 ft | 464 kts | 281° |
| 2026-05-04 04:03 | 50.75318 | 5.43316 | 39977 ft | 464 kts | 281° |
| 2026-05-04 04:03 | 50.76998 | 5.33466 | 39978 ft | 464 kts | 281° |
| 2026-05-04 04:04 | 50.78666 | 5.23626 | 39970 ft | 464 kts | 281° |
| 2026-05-04 04:04 | 50.80330 | 5.13754 | 39972 ft | 465 kts | 281° |
| 2026-05-04 04:05 | 50.81979 | 5.03922 | 39973 ft | 466 kts | 281° |
| 2026-05-04 04:05 | 50.83634 | 4.93994 | 39969 ft | 468 kts | 280° |
| 2026-05-04 04:06 | 50.85289 | 4.84010 | 39968 ft | 469 kts | 280° |
| 2026-05-04 04:06 | 50.86935 | 4.74017 | 39976 ft | 469 kts | 280° |
| 2026-05-04 04:07 | 50.88575 | 4.64003 | 39979 ft | 470 kts | 280° |
| 2026-05-04 04:07 | 50.90387 | 4.54110 | 39992 ft | 475 kts | 290° |
| 2026-05-04 04:08 | 50.93659 | 4.44907 | 39977 ft | 481 kts | 297° |
| 2026-05-04 04:08 | 50.97139 | 4.35846 | 39972 ft | 481 kts | 297° |
| 2026-05-04 04:09 | 51.00574 | 4.26857 | 39972 ft | 481 kts | 297° |
| 2026-05-04 04:09 | 51.04042 | 4.17753 | 39966 ft | 481 kts | 297° |
| 2026-05-04 04:10 | 51.07491 | 4.08668 | 39962 ft | 480 kts | 297° |
| 2026-05-04 04:10 | 51.10936 | 3.99559 | 39957 ft | 480 kts | 297° |
| 2026-05-04 04:11 | 51.14366 | 3.90458 | 39946 ft | 479 kts | 297° |
| 2026-05-04 04:11 | 51.17767 | 3.81404 | 39948 ft | 479 kts | 297° |
| 2026-05-04 04:12 | 51.21178 | 3.72290 | 39945 ft | 478 kts | 297° |
| 2026-05-04 04:12 | 51.24578 | 3.63171 | 39949 ft | 479 kts | 296° |
| 2026-05-04 04:13 | 51.27976 | 3.54021 | 39944 ft | 479 kts | 296° |
| 2026-05-04 04:13 | 51.31367 | 3.44858 | 39946 ft | 479 kts | 296° |
| 2026-05-04 04:14 | 51.34683 | 3.35721 | 39953 ft | 476 kts | 290° |
| 2026-05-04 04:14 | 51.37104 | 3.25898 | 39952 ft | 476 kts | 287° |
| 2026-05-04 04:15 | 51.39440 | 3.15979 | 39959 ft | 476 kts | 287° |
| 2026-05-04 04:15 | 51.41783 | 3.06058 | 39953 ft | 476 kts | 287° |
| 2026-05-04 04:16 | 51.44106 | 2.96164 | 39961 ft | 475 kts | 287° |
| 2026-05-04 04:16 | 51.46427 | 2.86236 | 39960 ft | 476 kts | 287° |
| 2026-05-04 04:17 | 51.48720 | 2.76389 | 39411 ft | 473 kts | 287° |
| 2026-05-04 04:17 | 51.49869 | 2.71430 | 38715 ft | 475 kts | 286° |
| 2026-05-04 04:17 | 51.51014 | 2.66479 | 38302 ft | 468 kts | 286° |
| 2026-05-04 04:18 | 51.52140 | 2.61612 | 37802 ft | 462 kts | 286° |
| 2026-05-04 04:18 | 51.53248 | 2.56802 | 37357 ft | 456 kts | 285° |
| 2026-05-04 04:18 | 51.54338 | 2.52054 | 36907 ft | 450 kts | 285° |
| 2026-05-04 04:18 | 51.55412 | 2.47366 | 36471 ft | 444 kts | 285° |
| 2026-05-04 04:19 | 51.56467 | 2.42752 | 36044 ft | 438 kts | 285° |
| 2026-05-04 04:19 | 51.57509 | 2.38185 | 35628 ft | 433 kts | 285° |
| 2026-05-04 04:19 | 51.58536 | 2.33670 | 35208 ft | 427 kts | 284° |
| 2026-05-04 04:19 | 51.59539 | 2.29269 | 34800 ft | 422 kts | 284° |
| 2026-05-04 04:20 | 51.60542 | 2.24868 | 34386 ft | 417 kts | 284° |
| 2026-05-04 04:20 | 51.61532 | 2.20508 | 33981 ft | 412 kts | 284° |
| 2026-05-04 04:20 | 51.62505 | 2.16207 | 33471 ft | 407 kts | 283° |
| 2026-05-04 04:20 | 51.63469 | 2.11939 | 32935 ft | 404 kts | 283° |
| 2026-05-04 04:21 | 51.64424 | 2.07703 | 32380 ft | 401 kts | 283° |
| 2026-05-04 04:21 | 51.65367 | 2.03499 | 31852 ft | 398 kts | 282° |
| 2026-05-04 04:21 | 51.66305 | 1.99311 | 31334 ft | 395 kts | 282° |
| 2026-05-04 04:21 | 51.67230 | 1.95173 | 30830 ft | 392 kts | 282° |
| 2026-05-04 04:22 | 51.68139 | 1.91105 | 30324 ft | 389 kts | 281° |
| 2026-05-04 04:22 | 51.69049 | 1.87015 | 29794 ft | 387 kts | 281° |
| 2026-05-04 04:22 | 51.69951 | 1.82951 | 29216 ft | 384 kts | 282° |
| 2026-05-04 04:22 | 51.70846 | 1.78915 | 28643 ft | 381 kts | 282° |
| 2026-05-04 04:23 | 51.71735 | 1.74905 | 28070 ft | 379 kts | 282° |
| 2026-05-04 04:23 | 51.72616 | 1.70917 | 27521 ft | 376 kts | 283° |
| 2026-05-04 04:23 | 51.73489 | 1.66960 | 26990 ft | 374 kts | 283° |
| 2026-05-04 04:23 | 51.74264 | 1.62998 | 26433 ft | 365 kts | 275° |
| 2026-05-04 04:24 | 51.74540 | 1.58981 | 25880 ft | 357 kts | 264° |
| 2026-05-04 04:24 | 51.74366 | 1.55078 | 25314 ft | 352 kts | 260° |
| 2026-05-04 04:24 | 51.74121 | 1.51153 | 24770 ft | 351 kts | 260° |
| 2026-05-04 04:24 | 51.73872 | 1.47245 | 24247 ft | 349 kts | 261° |
| 2026-05-04 04:25 | 51.73619 | 1.43358 | 23721 ft | 348 kts | 261° |
| 2026-05-04 04:25 | 51.73366 | 1.39480 | 23141 ft | 347 kts | 261° |
| 2026-05-04 04:25 | 51.73116 | 1.35628 | 22574 ft | 344 kts | 261° |
| 2026-05-04 04:25 | 51.72865 | 1.31800 | 22016 ft | 342 kts | 261° |
| 2026-05-04 04:26 | 51.72614 | 1.27997 | 21449 ft | 340 kts | 261° |
| 2026-05-04 04:26 | 51.72367 | 1.24263 | 20917 ft | 338 kts | 261° |
| 2026-05-04 04:26 | 51.72117 | 1.20507 | 20371 ft | 336 kts | 261° |
| 2026-05-04 04:26 | 51.71867 | 1.16775 | 19839 ft | 334 kts | 261° |
| 2026-05-04 04:27 | 51.71618 | 1.13060 | 19303 ft | 332 kts | 261° |
| 2026-05-04 04:27 | 51.71368 | 1.09362 | 18773 ft | 331 kts | 261° |
| 2026-05-04 04:27 | 51.71118 | 1.05688 | 18263 ft | 329 kts | 261° |
| 2026-05-04 04:27 | 51.70869 | 1.02032 | 17680 ft | 327 kts | 261° |
| 2026-05-04 04:28 | 51.70621 | 0.98404 | 17140 ft | 324 kts | 261° |
| 2026-05-04 04:28 | 51.70373 | 0.94807 | 16603 ft | 321 kts | 261° |
| 2026-05-04 04:28 | 51.70127 | 0.91245 | 16060 ft | 318 kts | 261° |
| 2026-05-04 04:28 | 51.69885 | 0.87759 | 15539 ft | 316 kts | 261° |
| 2026-05-04 04:29 | 51.69641 | 0.84265 | 15064 ft | 312 kts | 261° |
| 2026-05-04 04:29 | 51.69401 | 0.80827 | 14802 ft | 308 kts | 261° |
| 2026-05-04 04:29 | 51.69158 | 0.77387 | 14523 ft | 309 kts | 261° |
| 2026-05-04 04:29 | 51.68914 | 0.73948 | 14242 ft | 309 kts | 261° |
| 2026-05-04 04:30 | 51.68671 | 0.70513 | 13959 ft | 308 kts | 261° |
| 2026-05-04 04:30 | 51.68427 | 0.67088 | 13669 ft | 307 kts | 261° |
| 2026-05-04 04:30 | 51.68187 | 0.63727 | 13378 ft | 306 kts | 261° |
| 2026-05-04 04:30 | 51.67943 | 0.60329 | 13094 ft | 304 kts | 261° |
| 2026-05-04 04:31 | 51.67698 | 0.56946 | 12820 ft | 304 kts | 261° |
| 2026-05-04 04:31 | 51.67454 | 0.53574 | 12541 ft | 300 kts | 261° |
| 2026-05-04 04:31 | 51.67218 | 0.50311 | 12267 ft | 292 kts | 261° |
| 2026-05-04 04:31 | 51.66983 | 0.47097 | 12005 ft | 289 kts | 261° |
| 2026-05-04 04:32 | 51.66746 | 0.43877 | 11742 ft | 287 kts | 261° |
| 2026-05-04 04:32 | 51.66512 | 0.40696 | 11482 ft | 286 kts | 261° |
| 2026-05-04 04:32 | 51.66278 | 0.37522 | 11223 ft | 285 kts | 261° |
| 2026-05-04 04:32 | 51.66044 | 0.34363 | 10965 ft | 283 kts | 261° |
| 2026-05-04 04:33 | 51.65810 | 0.31221 | 10710 ft | 282 kts | 261° |
| 2026-05-04 04:33 | 51.65579 | 0.28125 | 10457 ft | 281 kts | 261° |
| 2026-05-04 04:33 | 51.65347 | 0.25028 | 10198 ft | 274 kts | 261° |
| 2026-05-04 04:33 | 51.65121 | 0.22012 | 9948 ft | 270 kts | 261° |
| 2026-05-04 04:34 | 51.64895 | 0.19022 | 9692 ft | 268 kts | 261° |
| 2026-05-04 04:34 | 51.64671 | 0.16058 | 9433 ft | 266 kts | 262° |
| 2026-05-04 04:34 | 51.64682 | 0.13120 | 9201 ft | 259 kts | 274° |
| 2026-05-04 04:34 | 51.64788 | 0.10288 | 8956 ft | 249 kts | 270° |
| 2026-05-04 04:35 | 51.64850 | 0.07529 | 8729 ft | 246 kts | 270° |
| 2026-05-04 04:35 | 51.64931 | 0.04788 | 8514 ft | 244 kts | 271° |
| 2026-05-04 04:35 | 51.65020 | 0.02107 | 8294 ft | 243 kts | 271° |
| 2026-05-04 04:35 | 51.65106 | -0.00602 | 8057 ft | 242 kts | 271° |
| 2026-05-04 04:36 | 51.65189 | -0.03309 | 7857 ft | 242 kts | 272° |
| 2026-05-04 04:36 | 51.65273 | -0.06019 | 7661 ft | 242 kts | 272° |
| 2026-05-04 04:36 | 51.65356 | -0.08722 | 7448 ft | 242 kts | 271° |
| 2026-05-04 04:36 | 51.65437 | -0.11425 | 7227 ft | 241 kts | 272° |
| 2026-05-04 04:37 | 51.64400 | -0.18530 | 6986 ft | 214 kts | 221° |
| 2026-05-04 04:37 | 51.63101 | -0.19658 | 6983 ft | 213 kts | 200° |
| 2026-05-04 04:38 | 51.61691 | -0.20439 | 6840 ft | 217 kts | 200° |
| 2026-05-04 04:38 | 51.60275 | -0.21223 | 6500 ft | 213 kts | 200° |
| 2026-05-04 04:38 | 51.58847 | -0.21772 | 6113 ft | 212 kts | 181° |
| 2026-05-04 04:38 | 51.57481 | -0.21129 | 5777 ft | 210 kts | 151° |
| 2026-05-04 04:39 | 51.56472 | -0.19488 | 5477 ft | 205 kts | 128° |
| 2026-05-04 04:39 | 51.55642 | -0.17658 | 5163 ft | 202 kts | 127° |
| 2026-05-04 04:39 | 51.54818 | -0.15830 | 4870 ft | 201 kts | 127° |
| 2026-05-04 04:39 | 51.53989 | -0.14024 | 4546 ft | 201 kts | 128° |
| 2026-05-04 04:40 | 51.52912 | -0.12697 | 4179 ft | 196 kts | 164° |
| 2026-05-04 04:40 | 51.51611 | -0.12669 | 3905 ft | 189 kts | 198° |